Погода Матанна 2 недели

Сан-Паулу, Бразилия

25 июля-07 августа
  • 25июля
    Сегодня
    +15°
    +30°
    Ясно и безоблачно
    ВремяПогодаТемператураВлажностьДавлениеВетер, м/сВероятность осадков
    00:00Практически безоблачно+20°C44 %715 мм3.5 м/с5 %
    03:00Ясно и безоблачно+17°C52 %714 мм2.8 м/с5 %
    06:00Ясно и безоблачно+17°C55 %714 мм3.2 м/с5 %
    09:00Ясно и безоблачно+20°C43 %716 мм3.3 м/с5 %
    12:00Ясно и безоблачно+27°C26 %716 мм2.5 м/с5 %
    15:00Ясно и безоблачно+29°C24 %714 мм1.5 м/с5 %
    18:00Ясно и безоблачно+26°C35 %713 мм2.1 м/с5 %
    21:00Ясно и безоблачно+22°C42 %713 мм1.5 м/с5 %
  • 26июля
    Пятница
    +16°
    +30°
    Облачно с прояснениями
    ВремяПогодаТемператураВлажностьДавлениеВетер, м/сВероятность осадков
    00:00Ясно и безоблачно+20°C43 %713 мм2.3 м/с5 %
    03:00Ясно и безоблачно+17°C48 %712 мм2.7 м/с5 %
    06:00Практически безоблачно+17°C53 %712 мм3.4 м/с5 %
    09:00Практически безоблачно+20°C44 %714 мм3.0 м/с5 %
    12:00Облачно с прояснениями+27°C25 %715 мм2.2 м/с5 %
    15:00Облачно с прояснениями+29°C24 %713 мм1.7 м/с5 %
    18:00Облачно с прояснениями+25°C36 %713 мм1.9 м/с5 %
    21:00Облачно с прояснениями+26°C31 %714 мм0.3 м/с5 %
  • 27июля
    Суббота
    +18°
    +31°
    Ясно и безоблачно
    ВремяПогодаТемператураВлажностьДавлениеВетер, м/сВероятность осадков
    00:00Облачно с прояснениями+19°C46 %713 мм2.0 м/с5 %
    03:00Облачно с прояснениями+18°C44 %712 мм3.2 м/с5 %
    06:00Облачно с прояснениями+17°C52 %712 мм3.2 м/с5 %
    09:00Ясно и безоблачно+21°C42 %714 мм2.9 м/с5 %
    12:00Ясно и безоблачно+28°C25 %715 мм2.9 м/с5 %
    15:00Ясно и безоблачно+31°C22 %713 мм1.4 м/с5 %
    18:00Ясно и безоблачно+28°C30 %713 мм1.6 м/с5 %
    21:00Ясно и безоблачно+22°C37 %713 мм2.2 м/с5 %
  • 28июля
    Воскресенье
    +18°
    +32°
    Ясно и безоблачно
    ВремяПогодаТемператураВлажностьДавлениеВетер, м/сВероятность осадков
    00:00Ясно и безоблачно+20°C41 %713 мм2.4 м/с5 %
    03:00Ясно и безоблачно+19°C47 %712 мм3.3 м/с5 %
    06:00Ясно и безоблачно+19°C50 %712 мм3.5 м/с5 %
    09:00Ясно и безоблачно+22°C40 %714 мм2.6 м/с5 %
    12:00Ясно и безоблачно+29°C26 %715 мм4.0 м/с5 %
    15:00Ясно и безоблачно+32°C23 %713 мм3.0 м/с5 %
    18:00Ясно и безоблачно+28°C33 %713 мм2.3 м/с5 %
    21:00Ясно и безоблачно+25°C39 %714 мм2.2 м/с5 %
  • 29июля
    Понедельник
    +14°
    +33°
    Ясно и безоблачно
    ВремяПогодаТемператураВлажностьДавлениеВетер, м/сВероятность осадков
    00:00Ясно и безоблачно+22°C45 %713 мм2.1 м/с5 %
    03:00Ясно и безоблачно+20°C46 %712 мм2.5 м/с5 %
    06:00Ясно и безоблачно+19°C50 %713 мм2.9 м/с5 %
    09:00Ясно и безоблачно+23°C40 %715 мм0.9 м/с5 %
    12:00Ясно и безоблачно+30°C27 %715 мм1.2 м/с5 %
    15:00Ясно и безоблачно+32°C23 %714 мм2.3 м/с5 %
    18:00Практически безоблачно+28°C31 %713 мм2.2 м/с5 %
    21:00Ясно и безоблачно+22°C59 %714 мм6.3 м/с5 %
Мы используем cookies
Соглашаюсь